Time;durP1;ratioP1;P1;durP2;ratioP2;P2;SDS_P1;SDS_P2;PMS_P1;PMS_P2;Temp;Humidity;BMP_temperature;BMP_pressure;BME280_temperature;BME280_humidity;BME280_pressure;Samples;Min_cycle;Max_cycle;Signal;HPM_P1;HPM_P2
2021/08/04 00:29:49;;;;;;;3.13;2.20;;;14.80;99.90;;;;;;6249367;22;20447;-89
2021/08/04 00:32:55;;;;;;;4.50;2.63;;;14.80;99.90;;;;;;6242384;22;20413;-89
2021/08/04 00:39:18;;;;;;;2.67;2.43;;;14.80;99.90;;;;;;6177783;23;21465;-91
2021/08/04 00:42:05;;;;;;;3.03;2.73;;;14.80;99.90;;;;;;6151369;23;20454;-91
2021/08/04 00:45:25;;;;;;;2.43;2.23;;;14.80;99.90;;;;;;6150289;23;20403;-91
2021/08/04 00:48:00;;;;;;;2.40;2.00;;;14.80;99.90;;;;;;6149662;23;20474;-91
2021/08/04 01:04:40;;;;;;;4.20;2.60;;;14.90;99.90;;;;;;6269253;22;20428;-90
2021/08/04 01:08:02;;;;;;;;;;;;;;;;;;;;;
2021/08/04 01:11:30;;;;;;;2.00;1.90;;;14.80;99.90;;;;;;6263951;22;20830;-90
2021/08/04 01:21:06;;;;;;;;;;;;;;;;;;;;;
2021/08/04 01:24:08;;;;;;;2.53;2.33;;;14.80;99.90;;;;;;5984037;23;20817;-90
2021/08/04 01:28:06;;;;;;;2.33;2.13;;;14.80;99.90;;;;;;6119252;23;20483;-90
2021/08/04 01:38:53;;;;;;;;;;;;;;;;;;;;;
2021/08/04 01:41:59;;;;;;;2.87;2.30;;;14.90;99.90;;;;;;5998573;23;20488;-91
2021/08/04 02:34:28;;;;;;;2.67;2.47;;;14.50;99.90;;;;;;6264031;22;20471;-85
2021/08/04 02:40:26;;;;;;;3.07;2.77;;;14.40;99.90;;;;;;6207118;22;20384;-88
2021/08/04 03:20:03;;;;;;;3.03;2.20;;;14.30;99.90;;;;;;6242978;22;20709;-85
2021/08/04 03:33:24;;;;;;;2.70;2.50;;;14.30;99.90;;;;;;6006330;23;20964;-88
2021/08/04 03:36:30;;;;;;;;;;;;;;;;;;;;;
2021/08/04 03:39:58;;;;;;;;;;;;;;;;;;;;;
2021/08/04 03:43:10;;;;;;;2.97;2.67;;;14.30;99.90;;;;;;6078781;23;20480;-88
2021/08/04 03:46:06;;;;;;;;;;;;;;;;;;;;;
2021/08/04 03:52:26;;;;;;;3.60;3.03;;;14.30;99.90;;;;;;6229496;23;20483;-88
2021/08/04 03:55:46;;;;;;;3.73;2.77;;;14.20;99.90;;;;;;6231116;23;20425;-88
2021/08/04 04:02:54;;;;;;;;;;;;;;;;;;;;;
2021/08/04 04:09:14;;;;;;;3.03;2.77;;;13.90;99.90;;;;;;6001290;23;20388;-86
2021/08/04 04:12:09;;;;;;;2.20;2.00;;;13.90;99.90;;;;;;6060901;23;20410;-86
2021/08/04 05:35:46;;;;;;;3.77;2.53;;;15.10;99.90;;;;;;6177442;23;20598;-84
2021/08/04 05:38:35;;;;;;;4.83;2.80;;;15.20;99.90;;;;;;6151688;23;20405;-92
2021/08/04 05:44:40;;;;;;;2.90;2.67;;;15.40;99.90;;;;;;6178551;23;20719;-92
2021/08/04 05:52:25;;;;;;;2.60;2.40;;;15.60;99.90;;;;;;6268349;22;20459;-91
2021/08/04 05:54:59;;;;;;;3.03;2.47;;;15.70;99.90;;;;;;6269078;22;20475;-91
2021/08/04 05:57:30;;;;;;;2.80;2.07;;;15.80;99.90;;;;;;6217368;22;20404;-91
2021/08/04 05:59:56;;;;;;;2.67;2.47;;;15.90;99.90;;;;;;6242194;22;20773;-89
2021/08/04 06:02:21;;;;;;;2.70;2.40;;;15.90;99.90;;;;;;6242412;22;20435;-90
2021/08/04 06:04:49;;;;;;;2.70;2.50;;;15.80;99.90;;;;;;6242237;22;20180;-90
2021/08/04 06:07:44;;;;;;;2.77;2.50;;;15.70;99.90;;;;;;6242002;22;20219;-91
2021/08/04 06:10:11;;;;;;;3.27;2.10;;;15.70;99.90;;;;;;6210955;22;20443;-91
2021/08/04 06:13:10;;;;;;;2.57;2.20;;;15.70;99.90;;;;;;6242298;22;20389;-92
2021/08/04 06:15:42;;;;;;;3.73;2.57;;;15.60;99.90;;;;;;6227153;22;20803;-91
2021/08/04 06:18:29;;;;;;;2.77;2.53;;;15.50;99.90;;;;;;6242574;22;20399;-92
2021/08/04 06:20:55;;;;;;;2.93;2.70;;;15.50;99.90;;;;;;6242173;22;20401;-88
2021/08/04 06:23:20;;;;;;;3.60;2.00;;;15.70;99.90;;;;;;6242759;22;20396;-91
2021/08/04 06:25:46;;;;;;;2.53;2.33;;;15.90;99.90;;;;;;6242802;22;20532;-93
2021/08/04 06:28:12;;;;;;;3.13;2.83;;;16.30;99.90;;;;;;6239459;22;20167;-94
2021/08/04 06:30:37;;;;;;;2.37;2.17;;;16.40;99.90;;;;;;6243024;22;20636;-92
2021/08/04 06:33:06;;;;;;;2.20;2.00;;;16.50;99.90;;;;;;6242682;22;20224;-91
2021/08/04 06:35:38;;;;;;;4.10;2.00;;;16.60;99.90;;;;;;6240573;22;20358;-92
2021/08/04 06:40:39;;;;;;;2.60;2.40;;;16.80;99.90;;;;;;6269650;22;20509;-91
2021/08/04 06:43:07;;;;;;;2.30;2.10;;;16.90;99.90;;;;;;6244926;22;20404;-90
2021/08/04 06:45:33;;;;;;;2.63;2.03;;;16.80;99.90;;;;;;6245399;22;20435;-91
2021/08/04 06:48:49;;;;;;;2.10;1.90;;;16.80;99.90;;;;;;6247049;22;20405;-91
2021/08/04 06:51:55;;;;;;;3.40;2.60;;;16.70;99.90;;;;;;6202728;22;20186;-91
2021/08/04 06:54:23;;;;;;;2.60;2.30;;;16.30;99.90;;;;;;6249474;22;20550;-89
2021/08/04 06:56:49;;;;;;;2.67;2.30;;;16.10;99.90;;;;;;6277808;22;20464;-91
2021/08/04 06:59:18;;;;;;;2.33;2.13;;;16.10;99.90;;;;;;6277201;22;20419;-92
2021/08/04 07:01:53;;;;;;;2.73;2.00;;;16.20;99.90;;;;;;6272944;22;20182;-90
2021/08/04 07:04:24;;;;;;;4.07;2.53;;;16.30;99.90;;;;;;6298520;22;20414;-92
2021/08/04 07:06:57;;;;;;;2.87;2.67;;;16.30;99.90;;;;;;6247292;22;20521;-89
2021/08/04 07:21:01;;;;;;;3.97;3.67;;;17.10;99.90;;;;;;6268556;22;20440;-88
2021/08/04 07:29:40;;;;;;;2.93;2.40;;;17.50;99.90;;;;;;6273395;22;20512;-88
2021/08/04 07:32:16;;;;;;;2.40;2.17;;;17.50;99.90;;;;;;6243116;22;20406;-87
2021/08/04 07:41:06;;;;;;;2.13;1.93;;;17.70;99.90;;;;;;6271063;22;20428;-89
2021/08/04 09:06:53;;;;;;;2.03;1.90;;;18.60;99.90;;;;;;6268153;22;20512;-88
2021/08/04 09:09:36;;;;;;;3.03;1.90;;;18.80;99.90;;;;;;6237717;22;20461;-89
2021/08/04 09:15:49;;;;;;;1.90;1.80;;;19.60;99.90;;;;;;6267727;22;20449;-88
2021/08/04 09:18:19;;;;;;;2.60;1.80;;;19.50;99.90;;;;;;6245076;22;20389;-87
2021/08/04 09:29:09;;;;;;;1.80;1.70;;;18.90;99.90;;;;;;6268979;22;20443;-88
2021/08/04 09:32:10;;;;;;;;;;;;;;;;;;;;;
2021/08/04 09:34:51;;;;;;;2.47;2.10;;;19.50;99.90;;;;;;6271039;22;20472;-90
2021/08/04 09:37:38;;;;;;;2.17;2.00;;;19.80;99.90;;;;;;6246325;22;20450;-91
2021/08/04 09:48:44;;;;;;;1.83;1.73;;;20.30;99.90;;;;;;6269238;22;20448;-89
2021/08/04 09:56:58;;;;;;;1.90;1.80;;;20.20;99.90;;;;;;6241273;22;20429;-89
2021/08/04 09:59:25;;;;;;;3.17;2.03;;;20.60;99.90;;;;;;6212410;23;20389;-89
2021/08/04 10:01:53;;;;;;;3.00;2.40;;;21.00;99.90;;;;;;6213392;23;20429;-89
2021/08/04 10:04:29;;;;;;;3.43;2.30;;;20.90;99.90;;;;;;6237441;23;20386;-89
2021/08/04 10:18:16;;;;;;;1.97;1.87;;;21.40;99.90;;;;;;6281481;22;20443;-89
2021/08/04 10:21:42;;;;;;;;;;;;;;;;;;;;;
2021/08/04 10:24:36;;;;;;;2.77;2.17;;;21.20;99.90;;;;;;6120547;23;20480;-89
2021/08/04 10:27:29;;;;;;;3.10;2.13;;;21.00;99.30;;;;;;6073205;23;20460;-91
2021/08/04 10:29:55;;;;;;;2.07;1.73;;;20.80;98.60;;;;;;6296396;22;20458;-91
2021/08/04 10:32:21;;;;;;;2.60;2.40;;;21.40;99.90;;;;;;6298009;22;20408;-90
2021/08/04 10:34:49;;;;;;;3.27;2.10;;;21.60;99.30;;;;;;6248022;22;20397;-90
2021/08/04 10:37:15;;;;;;;2.07;1.87;;;21.20;99.30;;;;;;6243614;22;20396;-91
2021/08/04 10:39:44;;;;;;;2.17;1.97;;;21.50;98.40;;;;;;6243641;22;20879;-90
2021/08/04 10:42:10;;;;;;;2.07;1.97;;;21.60;97.90;;;;;;6242712;22;21011;-89
2021/08/04 10:44:36;;;;;;;2.13;1.93;;;22.20;97.70;;;;;;6269602;22;20464;-88
2021/08/04 10:47:06;;;;;;;3.63;2.27;;;22.00;99.80;;;;;;6243022;22;20307;-89
2021/08/04 10:49:37;;;;;;;2.20;2.00;;;21.80;99.40;;;;;;6242080;22;20934;-89
2021/08/04 10:52:29;;;;;;;2.90;2.27;;;21.80;98.50;;;;;;6241899;22;20393;-89
2021/08/04 10:55:06;;;;;;;1.90;1.80;;;21.60;99.30;;;;;;6242301;22;20487;-90
2021/08/04 10:57:35;;;;;;;3.00;2.00;;;21.70;99.90;;;;;;6241328;22;20396;-89
2021/08/04 11:00:23;;;;;;;2.20;2.00;;;21.70;97.80;;;;;;6242478;22;20450;-90
2021/08/04 11:02:51;;;;;;;2.33;2.13;;;21.50;99.50;;;;;;6242855;22;20398;-89
2021/08/04 11:08:18;;;;;;;1.80;1.70;;;21.60;99.60;;;;;;6270068;22;20385;-90
2021/08/04 11:10:45;;;;;;;2.20;2.00;;;22.10;96.90;;;;;;6228552;22;20445;-90
2021/08/04 11:13:46;;;;;;;2.13;2.03;;;22.50;98.60;;;;;;6242334;22;20415;-89
2021/08/04 11:16:32;;;;;;;2.33;2.20;;;22.10;98.70;;;;;;6241066;22;20397;-88
2021/08/04 11:19:11;;;;;;;2.60;2.40;;;21.60;99.60;;;;;;6242995;22;20408;-89
2021/08/04 11:21:38;;;;;;;2.30;2.10;;;21.60;98.70;;;;;;6271005;22;20384;-89
2021/08/04 11:24:15;;;;;;;3.40;2.27;;;21.70;98.30;;;;;;6243632;22;20387;-90
2021/08/04 11:27:10;;;;;;;2.10;2.00;;;21.80;98.60;;;;;;6242882;22;20483;-90
2021/08/04 11:29:56;;;;;;;2.07;1.97;;;21.90;99.30;;;;;;6268404;22;20448;-89
2021/08/04 11:32:48;;;;;;;2.70;2.50;;;22.30;97.60;;;;;;6243091;22;20416;-89
2021/08/04 11:35:52;;;;;;;2.40;2.10;;;22.10;98.80;;;;;;6243076;22;20720;-90
2021/08/04 11:39:01;;;;;;;2.33;2.13;;;21.90;97.40;;;;;;6243212;22;20701;-88
2021/08/04 11:41:28;;;;;;;2.50;2.30;;;21.80;98.10;;;;;;6227609;22;20421;-90
2021/08/04 11:44:02;;;;;;;1.50;1.40;;;21.90;98.40;;;;;;6243715;22;20401;-89
2021/08/04 11:46:34;;;;;;;2.33;2.10;;;21.90;99.60;;;;;;6243255;22;20867;-91
2021/08/04 11:50:04;;;;;;;3.67;2.50;;;22.30;97.10;;;;;;6246862;22;20401;-90
2021/08/04 11:52:33;;;;;;;2.10;1.90;;;22.40;97.40;;;;;;6243786;22;20910;-91
2021/08/04 11:55:55;;;;;;;2.00;1.90;;;22.40;98.40;;;;;;6268752;22;20381;-90
2021/08/04 12:11:40;;;;;;;2.20;2.00;;;22.00;98.70;;;;;;6266918;22;20456;-82
2021/08/04 12:14:06;;;;;;;2.63;2.23;;;22.20;98.40;;;;;;6242820;22;20388;-83
2021/08/04 12:16:40;;;;;;;8.90;8.20;;;22.60;97.40;;;;;;6243235;22;20526;-83
2021/08/04 12:19:05;;;;;;;2.70;2.50;;;22.60;97.20;;;;;;6243517;22;20166;-85
2021/08/04 12:21:31;;;;;;;1.70;1.60;;;22.30;99.50;;;;;;6241212;22;20407;-85
2021/08/04 15:40:21;;;;;;;2.20;2.00;;;19.80;99.90;;;;;;6261938;22;21871;-88
2021/08/04 15:42:47;;;;;;;4.30;1.87;;;19.90;99.90;;;;;;6236747;22;20404;-92
2021/08/04 15:45:12;;;;;;;2.47;1.90;;;20.00;99.90;;;;;;6231775;22;20312;-91
2021/08/04 15:47:39;;;;;;;1.90;1.80;;;19.70;99.90;;;;;;6239468;22;20170;-89
2021/08/04 15:50:06;;;;;;;2.47;2.17;;;19.50;99.90;;;;;;6234911;22;20567;-92
2021/08/04 15:52:33;;;;;;;1.87;1.77;;;19.30;99.90;;;;;;6237732;22;21085;-91
2021/08/04 15:55:00;;;;;;;1.73;1.63;;;19.10;99.90;;;;;;6238139;22;20393;-88
2021/08/04 15:57:26;;;;;;;1.90;1.80;;;19.00;99.90;;;;;;6234643;22;20755;-90
2021/08/04 15:59:51;;;;;;;1.70;1.60;;;18.90;99.90;;;;;;6234493;22;20419;-91
2021/08/04 16:02:17;;;;;;;3.10;1.70;;;18.80;99.90;;;;;;6236072;22;20482;-92
2021/08/04 16:04:45;;;;;;;2.23;2.03;;;18.80;99.90;;;;;;6233777;22;20224;-91
2021/08/04 16:07:11;;;;;;;1.80;1.70;;;18.90;99.90;;;;;;6233777;22;20449;-92
2021/08/04 16:09:37;;;;;;;4.87;2.20;;;18.80;99.90;;;;;;6234539;22;20780;-90
2021/08/04 16:12:04;;;;;;;2.10;1.90;;;18.70;99.90;;;;;;6236104;22;20166;-95
2021/08/04 16:14:35;;;;;;;2.77;2.03;;;18.60;99.90;;;;;;6265939;22;20570;-95
2021/08/04 16:17:23;;;;;;;2.07;1.97;;;18.70;99.90;;;;;;6242358;22;20755;-95
2021/08/04 16:19:53;;;;;;;2.60;2.40;;;18.70;99.90;;;;;;6279033;22;20402;-96
2021/08/04 16:22:18;;;;;;;2.23;2.03;;;18.80;99.90;;;;;;6243525;22;20414;-96
2021/08/04 16:24:45;;;;;;;3.40;2.10;;;18.80;99.90;;;;;;6243503;22;20416;-96
2021/08/04 16:27:14;;;;;;;2.20;2.00;;;18.70;99.90;;;;;;6271400;22;20238;-96
2021/08/04 16:29:40;;;;;;;2.23;2.03;;;18.80;99.90;;;;;;6229962;22;20545;-94
2021/08/04 16:32:07;;;;;;;2.17;1.97;;;18.80;99.90;;;;;;6233791;22;20846;-96
2021/08/04 16:34:38;;;;;;;2.10;1.90;;;18.80;99.90;;;;;;6248460;22;20162;-96
2021/08/04 16:37:06;;;;;;;2.60;2.00;;;18.80;99.90;;;;;;6242124;22;21899;-93
2021/08/04 16:39:33;;;;;;;2.10;1.90;;;18.80;99.90;;;;;;6213841;22;20879;-95
2021/08/04 16:42:03;;;;;;;2.50;2.17;;;18.70;99.90;;;;;;6242509;22;20396;-95
2021/08/04 16:44:28;;;;;;;3.47;2.10;;;18.70;99.90;;;;;;6240861;22;20454;-94
2021/08/04 16:46:57;;;;;;;2.20;2.00;;;18.70;99.90;;;;;;6236996;22;20756;-91
2021/08/04 16:49:23;;;;;;;2.43;2.23;;;18.60;99.90;;;;;;6238483;22;20178;-90
2021/08/04 16:51:56;;;;;;;2.50;2.30;;;18.60;99.90;;;;;;6231059;22;20760;-91
2021/08/04 16:54:21;;;;;;;2.27;1.73;;;18.50;99.90;;;;;;6238829;22;20162;-93
2021/08/04 16:57:13;;;;;;;2.73;2.10;;;18.50;99.90;;;;;;6266777;22;20400;-93
2021/08/04 16:59:45;;;;;;;2.13;1.90;;;18.50;99.90;;;;;;6267665;22;20413;-94
2021/08/04 17:02:17;;;;;;;2.20;2.00;;;18.50;99.90;;;;;;6244321;22;20407;-94
2021/08/04 17:04:43;;;;;;;2.03;1.90;;;18.40;99.90;;;;;;6242591;22;20405;-93
2021/08/04 17:07:09;;;;;;;2.57;2.37;;;18.40;99.90;;;;;;6237662;22;20401;-95
2021/08/04 17:09:35;;;;;;;1.97;1.87;;;18.40;99.90;;;;;;6246311;22;20193;-95
2021/08/04 17:12:06;;;;;;;1.97;1.80;;;18.30;99.90;;;;;;6252783;22;20166;-95
2021/08/04 17:14:36;;;;;;;2.30;2.10;;;18.30;99.90;;;;;;6241541;22;20389;-95
2021/08/04 17:17:01;;;;;;;3.10;2.43;;;18.30;99.90;;;;;;6278385;22;20813;-93
2021/08/04 17:19:30;;;;;;;2.50;2.30;;;18.20;99.90;;;;;;6218386;23;20398;-96
2021/08/04 17:21:56;;;;;;;2.13;2.03;;;18.10;99.90;;;;;;6224546;22;20409;-95
2021/08/04 17:24:23;;;;;;;2.87;2.43;;;18.20;99.90;;;;;;6261184;22;20377;-94
2021/08/04 17:26:49;;;;;;;3.10;2.90;;;18.10;99.90;;;;;;6237880;22;20170;-94
2021/08/04 17:29:16;;;;;;;3.20;2.90;;;18.10;99.90;;;;;;6248031;22;20425;-93
2021/08/04 17:31:47;;;;;;;2.87;2.63;;;18.00;99.90;;;;;;6265895;22;20569;-92
2021/08/04 17:34:14;;;;;;;2.60;2.40;;;18.00;99.90;;;;;;6216094;22;20397;-94
2021/08/04 17:36:44;;;;;;;2.70;2.50;;;17.90;99.90;;;;;;6234612;22;20409;-92
2021/08/04 17:39:13;;;;;;;2.07;1.90;;;17.90;99.90;;;;;;6263014;22;20393;-93
2021/08/04 17:41:40;;;;;;;2.73;2.53;;;17.80;99.90;;;;;;6262692;22;20404;-94
2021/08/04 17:44:06;;;;;;;3.47;3.17;;;17.90;99.90;;;;;;6225912;22;20401;-96
2021/08/04 17:46:33;;;;;;;2.57;2.37;;;17.90;99.90;;;;;;6214169;22;20479;-93
2021/08/04 17:48:58;;;;;;;2.30;2.10;;;18.00;99.90;;;;;;6213845;22;20408;-94
2021/08/04 17:51:24;;;;;;;2.57;2.37;;;18.00;99.90;;;;;;6238439;22;20440;-93
2021/08/04 17:54:02;;;;;;;2.53;2.33;;;18.00;99.90;;;;;;6239273;22;20188;-94
2021/08/04 17:56:29;;;;;;;2.03;1.93;;;17.90;99.90;;;;;;6236784;22;20279;-93
2021/08/04 17:58:55;;;;;;;2.70;2.50;;;18.00;99.90;;;;;;6240417;22;20388;-94
2021/08/04 18:01:49;;;;;;;2.43;2.23;;;17.90;99.90;;;;;;6239742;22;20397;-94
2021/08/04 18:04:15;;;;;;;2.40;2.20;;;17.90;99.90;;;;;;6240583;22;20503;-94
2021/08/04 18:06:41;;;;;;;3.67;2.47;;;17.90;99.90;;;;;;6239973;22;20389;-94
2021/08/04 18:09:31;;;;;;;2.33;2.20;;;17.80;99.90;;;;;;6239617;22;20408;-93
2021/08/04 18:11:59;;;;;;;3.57;2.10;;;17.80;99.90;;;;;;6241925;22;20488;-95
2021/08/04 18:14:25;;;;;;;2.70;2.00;;;17.80;99.90;;;;;;6243877;22;20430;-95
2021/08/04 18:16:50;;;;;;;2.00;1.80;;;17.80;99.90;;;;;;6263061;22;20405;-95
2021/08/04 18:19:17;;;;;;;2.47;2.27;;;17.70;99.90;;;;;;6238944;22;20173;-95
2021/08/04 18:21:44;;;;;;;2.33;2.13;;;17.70;99.90;;;;;;6236647;22;20162;-94
2021/08/04 18:24:10;;;;;;;3.33;3.03;;;17.50;99.90;;;;;;6240643;22;20432;-94
2021/08/04 18:26:36;;;;;;;2.33;2.13;;;17.50;99.90;;;;;;6237691;22;20417;-95
2021/08/04 18:29:02;;;;;;;2.33;2.13;;;17.50;99.90;;;;;;6239335;22;20166;-94
2021/08/04 18:31:28;;;;;;;1.80;1.70;;;17.50;99.90;;;;;;6191620;22;20696;-95
2021/08/04 18:33:53;;;;;;;2.43;2.23;;;17.40;99.90;;;;;;6238738;22;20389;-95
2021/08/04 18:36:19;;;;;;;2.43;2.23;;;17.30;99.90;;;;;;6238894;22;20189;-93
2021/08/04 18:38:45;;;;;;;5.43;3.53;;;17.30;99.90;;;;;;6240241;22;20836;-96
2021/08/04 18:41:10;;;;;;;3.90;3.60;;;17.20;99.90;;;;;;6253790;22;20166;-96
2021/08/04 18:43:36;;;;;;;3.67;2.93;;;17.20;99.90;;;;;;6261009;22;20723;-96
2021/08/04 18:46:02;;;;;;;3.50;3.20;;;17.10;99.90;;;;;;6287569;22;20154;-96
2021/08/04 18:48:29;;;;;;;3.47;3.17;;;17.10;99.90;;;;;;6249082;22;20401;-96
2021/08/04 18:50:55;;;;;;;4.03;3.17;;;17.00;99.90;;;;;;6254771;22;20445;-95
2021/08/04 18:53:23;;;;;;;3.00;2.70;;;17.00;99.90;;;;;;6274237;22;20400;-96
2021/08/04 18:55:49;;;;;;;3.10;2.80;;;16.90;99.90;;;;;;6255532;22;20388;-96
2021/08/04 18:58:15;;;;;;;3.30;2.80;;;16.90;99.90;;;;;;6254738;22;20851;-96
2021/08/04 19:00:42;;;;;;;3.23;2.77;;;16.80;99.90;;;;;;6255813;22;20461;-96
2021/08/04 19:03:08;;;;;;;3.10;2.80;;;16.80;99.90;;;;;;6267814;22;20141;-96
2021/08/04 19:05:36;;;;;;;3.17;2.90;;;16.70;99.90;;;;;;6260796;22;20812;-95
2021/08/04 19:08:03;;;;;;;2.83;2.63;;;16.60;99.90;;;;;;6282363;22;20168;-96
2021/08/04 19:10:31;;;;;;;3.93;3.63;;;16.60;99.90;;;;;;6257046;22;20436;-96
2021/08/04 19:12:58;;;;;;;4.80;3.60;;;16.60;99.90;;;;;;6256387;22;20385;-96
2021/08/04 19:15:26;;;;;;;3.90;3.60;;;16.60;99.90;;;;;;6256266;22;20878;-92
2021/08/04 19:17:53;;;;;;;3.10;2.90;;;16.60;99.90;;;;;;6249805;22;20863;-93
2021/08/04 19:20:25;;;;;;;3.20;2.90;;;16.60;99.90;;;;;;6247547;22;20412;-90
2021/08/04 19:22:52;;;;;;;2.90;2.70;;;16.60;99.90;;;;;;6223335;22;20397;-90
2021/08/04 19:25:19;;;;;;;3.27;2.97;;;16.60;99.90;;;;;;6249138;22;20566;-89
2021/08/04 19:27:46;;;;;;;2.80;2.60;;;16.60;99.90;;;;;;6248670;22;20380;-90
2021/08/04 19:30:13;;;;;;;2.80;2.60;;;16.60;99.90;;;;;;6251522;22;20835;-94
2021/08/04 19:32:42;;;;;;;2.80;2.60;;;16.50;99.90;;;;;;6249209;22;20423;-89
2021/08/04 19:37:51;;;;;;;3.07;2.17;;;16.50;99.90;;;;;;6274768;22;20440;-96
2021/08/04 19:40:49;;;;;;;2.87;2.13;;;16.50;99.90;;;;;;6233263;22;20433;-93
2021/08/04 19:43:25;;;;;;;2.83;2.57;;;16.60;99.90;;;;;;6247422;22;20445;-94
2021/08/04 19:46:31;;;;;;;2.83;2.63;;;16.60;99.90;;;;;;6300942;22;20431;-94
2021/08/04 19:49:00;;;;;;;3.80;3.50;;;16.50;99.90;;;;;;6289756;22;20385;-96
2021/08/04 19:51:41;;;;;;;3.27;3.07;;;16.40;99.90;;;;;;6268131;22;20437;-96
2021/08/04 19:54:26;;;;;;;2.90;2.70;;;16.40;99.90;;;;;;6244454;22;20776;-96
2021/08/04 19:57:18;;;;;;;3.07;2.60;;;16.40;99.90;;;;;;6272177;22;20404;-95
2021/08/04 19:59:55;;;;;;;2.70;2.47;;;16.50;99.90;;;;;;6268350;22;20435;-96
2021/08/04 20:02:42;;;;;;;3.20;2.90;;;16.50;99.90;;;;;;6223656;22;20786;-96
2021/08/04 20:05:11;;;;;;;2.80;2.60;;;16.40;99.90;;;;;;6266627;22;20412;-96
2021/08/04 20:14:04;;;;;;;2.90;2.70;;;16.20;99.90;;;;;;6208785;22;20442;-94
2021/08/04 20:16:35;;;;;;;2.53;2.33;;;16.20;99.90;;;;;;6247252;22;20735;-93
2021/08/04 20:19:04;;;;;;;4.80;2.60;;;16.20;99.90;;;;;;6248168;22;20404;-94
2021/08/04 20:21:41;;;;;;;2.53;2.33;;;16.20;99.90;;;;;;6246383;22;20447;-92
2021/08/04 20:24:13;;;;;;;2.87;2.67;;;16.10;99.90;;;;;;6244795;22;20401;-94
2021/08/04 20:26:39;;;;;;;3.17;2.43;;;16.10;99.90;;;;;;6247827;22;20486;-92
2021/08/04 20:29:05;;;;;;;3.17;2.87;;;16.10;99.90;;;;;;6248107;22;20397;-93
2021/08/04 20:31:31;;;;;;;2.83;2.30;;;16.10;99.90;;;;;;6246078;22;20437;-93
2021/08/04 20:33:58;;;;;;;2.97;2.77;;;16.00;99.90;;;;;;6214513;22;20173;-93
2021/08/04 20:36:26;;;;;;;3.57;3.20;;;16.00;99.90;;;;;;6238677;22;20450;-93
2021/08/04 20:38:52;;;;;;;2.67;2.43;;;16.00;99.90;;;;;;6237850;22;20389;-93
2021/08/04 20:41:18;;;;;;;3.10;2.90;;;16.00;99.90;;;;;;6239381;22;20393;-93
2021/08/04 20:43:44;;;;;;;3.67;3.10;;;15.90;99.90;;;;;;6240542;22;20165;-92
2021/08/04 20:46:12;;;;;;;3.93;2.57;;;15.90;99.90;;;;;;6257481;22;20400;-93
2021/08/04 20:48:39;;;;;;;2.70;2.50;;;15.80;99.90;;;;;;6262454;22;20393;-93
2021/08/04 20:51:07;;;;;;;3.40;3.10;;;15.90;99.90;;;;;;6243967;22;20472;-92
2021/08/04 20:53:33;;;;;;;3.10;2.90;;;15.90;99.90;;;;;;6244828;22;20397;-93
2021/08/04 20:56:01;;;;;;;3.97;3.13;;;16.00;99.90;;;;;;6247521;22;20496;-92
2021/08/04 20:58:29;;;;;;;3.77;3.00;;;16.00;99.90;;;;;;6288015;22;20158;-92
2021/08/04 21:00:57;;;;;;;3.53;3.20;;;15.90;99.90;;;;;;6262515;22;20396;-91
2021/08/04 21:03:24;;;;;;;3.47;3.17;;;15.90;99.90;;;;;;6274669;22;20393;-92
2021/08/04 21:05:50;;;;;;;3.60;3.30;;;15.90;99.90;;;;;;6240433;22;20400;-91
2021/08/04 21:08:16;;;;;;;3.60;3.30;;;15.90;99.90;;;;;;6265271;22;20400;-92
2021/08/04 21:10:50;;;;;;;3.60;3.30;;;15.80;99.90;;;;;;6237838;22;20814;-91
2021/08/04 21:13:19;;;;;;;4.03;3.73;;;15.80;99.90;;;;;;6238823;22;20392;-92
2021/08/04 21:15:50;;;;;;;4.47;4.07;;;15.80;99.90;;;;;;6239224;22;21290;-93
2021/08/04 21:18:16;;;;;;;4.47;4.07;;;15.80;99.90;;;;;;6238726;22;20389;-93
2021/08/04 21:20:42;;;;;;;4.13;3.83;;;15.90;99.90;;;;;;6235836;22;20805;-93
2021/08/04 21:23:12;;;;;;;4.77;3.80;;;15.90;99.90;;;;;;6239152;22;20211;-93
2021/08/04 21:25:38;;;;;;;3.80;3.50;;;15.90;99.90;;;;;;6240337;22;20389;-93
2021/08/04 21:28:09;;;;;;;3.80;3.40;;;15.90;99.90;;;;;;6239786;22;20392;-92
2021/08/04 21:30:36;;;;;;;3.97;3.60;;;15.80;99.90;;;;;;6238759;22;20444;-93
2021/08/04 21:33:04;;;;;;;4.50;3.70;;;15.80;99.90;;;;;;6238068;22;20392;-93
2021/08/04 21:35:30;;;;;;;3.40;3.20;;;15.80;99.90;;;;;;6238968;22;20831;-93
2021/08/04 21:37:58;;;;;;;4.00;3.13;;;15.90;99.90;;;;;;6265966;22;20408;-92
2021/08/04 21:40:24;;;;;;;3.17;2.90;;;15.80;99.90;;;;;;6266630;22;20871;-93
2021/08/04 21:42:54;;;;;;;3.00;2.80;;;15.80;99.90;;;;;;6264396;22;20458;-92
2021/08/04 21:45:20;;;;;;;3.33;3.07;;;15.70;99.90;;;;;;6264016;22;20397;-93
2021/08/04 21:48:08;;;;;;;3.07;2.87;;;15.80;99.90;;;;;;6267582;22;20373;-93
2021/08/04 21:50:37;;;;;;;3.30;2.70;;;15.80;99.90;;;;;;6238326;22;20194;-92
2021/08/04 21:53:06;;;;;;;3.30;3.00;;;15.70;99.90;;;;;;6239259;22;20491;-91
2021/08/04 21:55:33;;;;;;;3.93;3.50;;;15.80;99.90;;;;;;6264501;22;20871;-91
2021/08/04 21:58:02;;;;;;;4.80;3.70;;;15.80;99.90;;;;;;6266695;22;20468;-91
2021/08/04 22:00:30;;;;;;;4.10;3.57;;;15.70;99.90;;;;;;6265142;22;20385;-90
2021/08/04 22:02:59;;;;;;;3.30;3.00;;;15.70;99.90;;;;;;6264860;22;20381;-91
2021/08/04 22:05:30;;;;;;;4.10;3.10;;;15.70;99.90;;;;;;6265458;22;20723;-91
2021/08/04 22:08:11;;;;;;;3.70;3.27;;;15.80;99.90;;;;;;6238883;22;20764;-92
2021/08/04 22:10:36;;;;;;;3.50;3.30;;;15.70;99.90;;;;;;6239126;22;20436;-92
2021/08/04 22:13:02;;;;;;;4.00;3.70;;;15.70;99.90;;;;;;6238808;22;20391;-92
2021/08/04 22:15:32;;;;;;;3.50;3.20;;;15.70;99.90;;;;;;6238240;22;20162;-91
2021/08/04 22:17:59;;;;;;;3.40;3.07;;;15.70;99.90;;;;;;6265180;22;20158;-91
2021/08/04 22:20:24;;;;;;;3.60;3.30;;;15.70;99.90;;;;;;6236850;22;20389;-91
2021/08/04 22:22:50;;;;;;;4.47;3.87;;;15.70;99.90;;;;;;6232076;22;20385;-92
2021/08/04 22:25:16;;;;;;;3.97;3.00;;;15.60;99.90;;;;;;6239257;22;20181;-91
2021/08/04 22:27:42;;;;;;;4.00;3.70;;;15.60;99.90;;;;;;6238638;22;20203;-92
2021/08/04 22:30:08;;;;;;;4.03;3.73;;;15.60;99.90;;;;;;6238728;22;20263;-91
2021/08/04 22:32:37;;;;;;;3.90;3.40;;;15.60;99.90;;;;;;6236153;22;20814;-91
2021/08/04 22:35:03;;;;;;;3.60;3.30;;;15.60;99.90;;;;;;6264551;22;20393;-91
2021/08/04 22:37:29;;;;;;;4.53;4.13;;;15.60;99.90;;;;;;6264227;22;20392;-91
2021/08/04 22:39:55;;;;;;;4.43;3.20;;;15.60;99.90;;;;;;6264900;22;20424;-92
2021/08/04 22:42:23;;;;;;;4.27;3.90;;;15.60;99.90;;;;;;6264947;22;20950;-91
2021/08/04 22:44:49;;;;;;;8.67;3.70;;;15.60;99.90;;;;;;6266490;22;20769;-92
2021/08/04 22:47:15;;;;;;;7.73;3.63;;;15.60;99.90;;;;;;6238563;22;20899;-91
2021/08/04 22:49:41;;;;;;;4.00;3.40;;;15.60;99.90;;;;;;6235904;22;20758;-92
2021/08/04 22:52:07;;;;;;;4.10;3.70;;;15.60;99.90;;;;;;6236816;22;20229;-91
2021/08/04 22:54:33;;;;;;;4.90;3.93;;;15.50;99.90;;;;;;6214254;22;20511;-91
2021/08/04 22:56:59;;;;;;;6.07;3.30;;;15.50;99.90;;;;;;6264197;22;20556;-91
2021/08/04 22:59:25;;;;;;;4.67;4.13;;;15.60;99.90;;;;;;6265896;22;20233;-92
2021/08/04 23:01:50;;;;;;;4.80;3.63;;;15.60;99.90;;;;;;6266232;22;20177;-92
2021/08/04 23:04:17;;;;;;;4.07;3.67;;;15.70;99.90;;;;;;6237596;22;20161;-91
2021/08/04 23:06:43;;;;;;;4.10;3.70;;;15.60;99.90;;;;;;6232477;22;20241;-90
2021/08/04 23:09:13;;;;;;;5.73;4.53;;;15.50;99.90;;;;;;6263323;22;20784;-92
2021/08/04 23:11:43;;;;;;;4.50;4.10;;;15.60;99.90;;;;;;6263710;22;20417;-92
2021/08/04 23:14:10;;;;;;;6.63;6.03;;;15.60;99.90;;;;;;6239485;22;20953;-92
2021/08/04 23:16:37;;;;;;;4.70;4.30;;;15.60;99.90;;;;;;6267536;22;21250;-92
2021/08/04 23:19:13;;;;;;;4.73;4.33;;;15.50;99.90;;;;;;6264702;22;20421;-92
2021/08/04 23:21:42;;;;;;;6.70;4.70;;;15.50;99.90;;;;;;6263584;22;20450;-92
2021/08/04 23:24:12;;;;;;;5.30;4.87;;;15.50;99.90;;;;;;6234402;22;20407;-92
2021/08/04 23:26:40;;;;;;;4.80;4.30;;;15.50;99.90;;;;;;6239792;22;20432;-92
2021/08/04 23:29:07;;;;;;;4.43;4.03;;;15.50;99.90;;;;;;6241363;22;20388;-92
2021/08/04 23:31:38;;;;;;;5.60;5.10;;;15.60;99.90;;;;;;6240613;22;20444;-93
2021/08/04 23:34:15;;;;;;;5.80;4.60;;;15.50;99.90;;;;;;6227467;22;20389;-92
2021/08/04 23:36:47;;;;;;;5.00;4.60;;;15.50;99.90;;;;;;6234579;22;20889;-91
2021/08/04 23:39:13;;;;;;;5.00;4.60;;;15.50;99.90;;;;;;6241638;22;20412;-92
2021/08/04 23:41:42;;;;;;;9.83;4.60;;;15.60;99.90;;;;;;6239599;22;20389;-92
2021/08/04 23:44:13;;;;;;;7.40;5.20;;;15.50;99.90;;;;;;6237373;22;20777;-92
2021/08/04 23:46:44;;;;;;;5.83;5.23;;;15.60;99.90;;;;;;6240758;22;20616;-92
2021/08/04 23:49:19;;;;;;;6.40;5.30;;;15.50;99.90;;;;;;6267837;22;20396;-92
2021/08/04 23:51:45;;;;;;;9.20;5.63;;;15.50;99.90;;;;;;6241218;22;20454;-92
2021/08/04 23:54:14;;;;;;;5.80;4.93;;;15.50;99.90;;;;;;6239362;22;20413;-92
2021/08/04 23:56:40;;;;;;;6.17;5.53;;;15.30;99.90;;;;;;6239311;22;20479;-91
2021/08/04 23:59:06;;;;;;;5.80;5.30;;;15.30;99.90;;;;;;6216468;22;20922;-92
